LOWW Airport Information

Runway Information
Runway 11 Length 11483 ft width 148 ft
Elevation 575 ft Threshold 0 ft Heading 116
Runway 29 Length 11483 ft Width 148 ft
Elevation 600 ft Threshold 0 ft Heading 296
Runway 16 Length 11811 ft width 148 ft
Elevation 597 ft Threshold 2953 ft Heading 164
Runway 34 Length 11811 ft Width 148 ft
Elevation 586 ft Threshold 0 ft Heading 344
Airport Frequencies
Type APP Name WIEN RADAR Frequency 128.2 MHZ
Type ATIS Name ATIS Frequency 121.725 MHZ
Type CLD Name WIEN CLNC Frequency 122.125 MHZ
Type DIR Name DIRECTOR Frequency 119.8 MHZ
Type GND Name WIEN GND Frequency 121.6 MHZ
Type INFO Name INFO Frequency 118.525 MHZ
Type RMP Name VIENNA ICE Frequency 131.625 MHZ
Type TWR Name WIEN TWR Frequency 119.4 MHZ
Airport Navaids
Type NDB Name Bruck Frequency 408 KHZ
Type VOR-DME Name Fischamend Frequency 110400 KHZ
Type VOR-DME Name Sollenau Frequency 115500 KHZ
Type NDB Name Steinhof Frequency 293 KHZ
Type VOR-DME Name Wagram Frequency 112200 KHZ
Type NDB Name Schwechat Frequency 303 KHZ
Airport Weather Information & NOTAM
ADDS - METARS form results

(1117 UTC 17 July 2018)
 
METAR text: LOWW 171050Z 29016KT 9999 FEW050 BKN130 26/14 Q1010 NOSIG
Conditions at: LOWW (VIENNA/SCHWECHAT, AT) observed 1050 UTC 17 July 2018
Temperature: 26.0°C (79°F)
Dewpoint: 14.0°C (57°F) [RH = 48%]
Pressure (altimeter): 29.82 inches Hg (1010.0 mb)
Winds: from the WNW (290 degrees) at 18 MPH (16 knots; 8.3 m/s)
Visibility: 6 or more miles (10+ km)
Ceiling: 13000 feet AGL
Clouds: few clouds at 5000 feet AGL
broken clouds at 13000 feet AGL
Weather: no significant weather observed at this time

METAR text: LOWW 171020Z 28017KT 9999 FEW050 FEW050TCU BKN130 23/13 Q1010 NOSIG
Conditions at: LOWW (VIENNA/SCHWECHAT, AT) observed 1020 UTC 17 July 2018
Temperature: 23.0°C (73°F)
Dewpoint: 13.0°C (55°F) [RH = 53%]
Pressure (altimeter): 29.82 inches Hg (1010.0 mb)
Winds: from the W (280 degrees) at 20 MPH (17 knots; 8.8 m/s)
Visibility: 6 or more miles (10+ km)
Ceiling: 13000 feet AGL
Clouds: few clouds at 5000 feet AGL
few clouds at 5000 feet AGL
broken clouds at 13000 feet AGL
Weather: no significant weather observed at this time